| time (UTC) | temp F | wind direction | speed MPH | gust MPH | rain 1hr in | rain 24hr in | rain mn in | humidity % | barometer mb |
| 20260507191529 | 65 | 349 | 6.0 | 11.0 | 0.00 | 0.00 | 0.00 | 44 | 1018.4 |
| 20260507190029 | 64 | 7 | 5.0 | 10.0 | 0.00 | 0.00 | 0.00 | 46 | 1018.6 |
| 20260507184529 | 63 | 4 | 6.0 | 11.0 | 0.00 | 0.00 | 0.00 | 47 | 1018.7 |
| 20260507183046 | 62 | 335 | 6.0 | 11.0 | 0.00 | 0.00 | 0.00 | 52 | 1018.8 |
| 20260507181530 | 61 | 323 | 6.0 | 12.0 | 0.00 | 0.00 | 0.00 | 53 | 1018.9 |
| 20260507180029 | 61 | 360 | 8.0 | 12.0 | 0.00 | 0.00 | 0.00 | 55 | 1019.1 |
| 20260507174531 | 61 | 357 | 6.0 | 12.0 | 0.00 | 0.00 | 0.00 | 56 | 1019.1 |
| 20260507173029 | 60 | 346 | 5.0 | 9.0 | 0.00 | 0.00 | 0.00 | 58 | 1019.2 |
| 20260507170032 | 60 | 27 | 7.0 | 13.0 | 0.00 | 0.00 | 0.00 | 62 | 1019.4 |
| 20260507164532 | 60 | 358 | 5.0 | 8.0 | 0.00 | 0.00 | 0.00 | 66 | 1019.3 |
| 20260507163110 | 59 | 313 | 5.0 | 8.0 | 0.00 | 0.00 | 0.00 | 69 | 1019.2 |
| 20260507160031 | 57 | 286 | 4.0 | 8.0 | 0.00 | 0.00 | 0.00 | 77 | 1019.7 |
| 20260507154530 | 54 | 291 | 5.0 | 8.0 | 0.00 | 0.00 | 0.00 | 81 | 1019.8 |
| 20260507153107 | 52 | 271 | 3.0 | 7.0 | 0.00 | 0.00 | 0.00 | 84 | 1019.9 |
| 20260507151530 | 51 | 305 | 2.0 | 4.0 | 0.00 | 0.00 | 0.00 | 85 | 1020.0 |
| 20260507150036 | 50 | 279 | 2.0 | 4.0 | 0.00 | 0.00 | 0.00 | 87 | 1019.9 |
| 20260507144534 | 49 | 350 | 1.0 | 2.0 | 0.00 | 0.00 | 0.00 | 88 | 1019.9 |
| 20260507143030 | 48 | 347 | 0.0 | 3.0 | 0.00 | 0.00 | 0.00 | 89 | 1019.9 |
| 20260507141530 | 47 | 75 | 0.0 | 3.0 | 0.00 | 0.00 | 0.00 | 90 | 1019.8 |
| 20260507140145 | 46 | 330 | 0.0 | 2.0 | 0.00 | 0.00 | 0.00 | 90 | 1019.5 |
| 20260507134533 | 45 | 154 | 0.0 | 4.0 | 0.00 | 0.00 | 0.00 | 89 | 1019.3 |
| 20260507133106 | 44 | 178 | 2.0 | 3.0 | 0.00 | 0.00 | 0.00 | 89 | 1019.3 |
| 20260507130033 | 45 | 351 | 0.0 | 2.0 | 0.00 | 0.00 | 0.00 | 88 | 1019.1 |
| 20260507124530 | 45 | 93 | 0.0 | 3.0 | 0.00 | 0.00 | 0.00 | 88 | 1019.1 |
| 20260507123030 | 46 | 130 | 2.0 | 5.0 | 0.00 | 0.00 | 0.00 | 87 | 1019.0 |
| 20260507120145 | 47 | 149 | 4.0 | 6.0 | 0.00 | 0.00 | 0.00 | 86 | 1018.9 |
| 20260507114539 | 47 | 79 | 4.0 | 7.0 | 0.00 | 0.00 | 0.00 | 86 | 1018.8 |
| 20260507113031 | 47 | 102 | 2.0 | 6.0 | 0.00 | 0.00 | 0.00 | 86 | 1018.7 |
| 20260507111531 | 47 | 87 | 3.0 | 7.0 | 0.00 | 0.00 | 0.00 | 85 | 1018.6 |
| 20260507110030 | 47 | 109 | 5.0 | 9.0 | 0.00 | 0.00 | 0.00 | 84 | 1018.5 |
| 20260507104530 | 48 | 126 | 5.0 | 9.0 | 0.00 | 0.00 | 0.00 | 82 | 1018.3 |
| 20260507103032 | 50 | 141 | 5.0 | 8.0 | 0.00 | 0.00 | 0.00 | 81 | 1018.4 |
| 20260507101531 | 50 | 103 | 1.0 | 5.0 | 0.00 | 0.00 | 0.00 | 79 | 1018.3 |
| 20260507093033 | 53 | 49 | 2.0 | 6.0 | 0.00 | 0.00 | 0.00 | 78 | 1018.5 |
| 20260507090031 | 52 | 71 | 1.0 | 5.0 | 0.00 | 0.00 | 0.00 | 80 | 1018.5 |
| 20260507084529 | 52 | 95 | 2.0 | 7.0 | 0.00 | 0.00 | 0.00 | 80 | 1018.6 |
| 20260507083032 | 52 | 99 | 3.0 | 7.0 | 0.00 | 0.00 | 0.00 | 79 | 1018.7 |
| 20260507081531 | 53 | 86 | 3.0 | 6.0 | 0.00 | 0.00 | 0.00 | 77 | 1018.7 |
| 20260507080030 | 54 | 75 | 3.0 | 8.0 | 0.00 | 0.00 | 0.00 | 76 | 1018.8 |
| 20260507074531 | 55 | 42 | 6.0 | 10.0 | 0.00 | 0.00 | 0.00 | 76 | 1018.8 |
| 20260507073031 | 53 | 49 | 5.0 | 10.0 | 0.00 | 0.00 | 0.00 | 76 | 1018.7 |
| 20260507071531 | 53 | 85 | 3.0 | 7.0 | 0.00 | 0.00 | 0.00 | 74 | 1018.7 |
| 20260507070034 | 53 | 341 | 1.0 | 4.0 | 0.00 | 0.00 | 0.00 | 74 | 1018.8 |
| 20260507064531 | 53 | 253 | 1.0 | 4.0 | 0.00 | 0.00 | 0.00 | 74 | 1018.9 |
| 20260507063107 | 54 | 139 | 1.0 | 5.0 | 0.00 | 0.00 | 0.00 | 72 | 1018.9 |
| 20260507061529 | 56 | 134 | 2.0 | 5.0 | 0.00 | 0.00 | 0.00 | 67 | 1019.1 |
| 20260507060106 | 58 | 131 | 2.0 | 5.0 | 0.00 | 0.00 | 0.00 | 63 | 1019.1 |
| 20260507053107 | 59 | 303 | 6.0 | 16.0 | 0.00 | 0.00 | 0.00 | 59 | 1019.1 |
| 20260507051607 | 59 | 298 | 9.0 | 18.0 | 0.00 | 0.00 | 0.00 | 58 | 1018.9 |
| 20260507050031 | 59 | 294 | 8.0 | 16.0 | 0.00 | 0.00 | 0.00 | 57 | 1019.0 |
| 20260507044531 | 59 | 302 | 8.0 | 15.0 | 0.00 | 0.00 | 0.00 | 56 | 1019.2 |
| 20260507043030 | 59 | 308 | 5.0 | 11.0 | 0.00 | 0.00 | 0.00 | 54 | 1019.3 |
| 20260507041530 | 60 | 318 | 4.0 | 8.0 | 0.00 | 0.00 | 0.00 | 53 | 1019.3 |
| 20260507040039 | 62 | 316 | 3.0 | 9.0 | 0.00 | 0.00 | 0.00 | 50 | 1019.1 |
| 20260507034531 | 63 | 313 | 8.0 | 15.0 | 0.00 | 0.00 | 0.00 | 49 | 1019.0 |
| 20260507033031 | 63 | 315 | 11.0 | 17.0 | 0.00 | 0.00 | 0.00 | 48 | 1018.8 |
| 20260507030107 | 65 | 310 | 14.0 | 22.0 | 0.00 | 0.00 | 0.00 | 48 | 1018.4 |
| 20260507024528 | 65 | 311 | 13.0 | 23.0 | 0.00 | 0.00 | 0.00 | 48 | 1018.4 |
| 20260507023034 | 65 | 310 | 15.0 | 24.0 | 0.00 | 0.00 | 0.00 | 48 | 1018.3 |
| 20260507021532 | 65 | 312 | 15.0 | 24.0 | 0.00 | 0.00 | 0.00 | 47 | 1018.2 |
| 20260507020106 | 66 | 304 | 15.0 | 24.0 | 0.00 | 0.00 | 0.00 | 47 | 1018.0 |
| 20260507014528 | 66 | 308 | 10.0 | 22.0 | 0.00 | 0.00 | 0.00 | 47 | 1018.1 |
| 20260507013108 | 66 | 325 | 8.0 | 19.0 | 0.00 | 0.00 | 0.00 | 48 | 1018.1 |
| 20260507011531 | 67 | 334 | 10.0 | 16.0 | 0.00 | 0.00 | 0.00 | 46 | 1018.0 |
| 20260507010031 | 68 | 330 | 11.0 | 20.0 | 0.00 | 0.00 | 0.00 | 45 | 1017.9 |
| 20260507004530 | 68 | 327 | 12.0 | 20.0 | 0.00 | 0.00 | 0.00 | 44 | 1017.8 |
| 20260507003032 | 69 | 320 | 14.0 | 22.0 | 0.00 | 0.00 | 0.00 | 43 | 1017.5 |
| 20260507001531 | 69 | 317 | 12.0 | 23.0 | 0.00 | 0.00 | 0.00 | 43 | 1017.5 |
| 20260507000029 | 70 | 320 | 13.0 | 22.0 | 0.00 | 0.00 | 0.00 | 42 | 1017.3 |
| 20260506233029 | 72 | 316 | 13.0 | 21.0 | 0.00 | 0.00 | 0.00 | 41 | 1017.3 |
| 20260506231637 | 73 | 318 | 11.0 | 21.0 | 0.00 | 0.00 | 0.00 | 40 | 1017.4 |
| 20260506230030 | 74 | 323 | 9.0 | 19.0 | 0.00 | 0.00 | 0.00 | 40 | 1017.6 |
| 20260506224529 | 75 | 317 | 12.0 | 23.0 | 0.00 | 0.00 | 0.00 | 41 | 1017.7 |
| 20260506221531 | 76 | 313 | 14.0 | 24.0 | 0.00 | 0.00 | 0.00 | 40 | 1017.6 |
| 20260506220029 | 76 | 323 | 15.0 | 23.0 | 0.00 | 0.00 | 0.00 | 40 | 1017.4 |
| 20260506214647 | 76 | 320 | 14.0 | 24.0 | 0.00 | 0.00 | 0.00 | 40 | 1017.4 |
| 20260506213146 | 76 | 310 | 12.0 | 18.0 | 0.00 | 0.00 | 0.00 | 42 | 1017.5 |
| 20260506210034 | 75 | 313 | 13.0 | 20.0 | 0.00 | 0.00 | 0.00 | 43 | 1017.8 |
| 20260506204607 | 74 | 318 | 11.0 | 19.0 | 0.00 | 0.00 | 0.00 | 43 | 1018.0 |
| 20260506203105 | 75 | 326 | 11.0 | 21.0 | 0.00 | 0.00 | 0.00 | 43 | 1017.9 |
| 20260506201606 | 73 | 339 | 12.0 | 18.0 | 0.00 | 0.00 | 0.00 | 45 | 1017.9 |
| 20260506200029 | 72 | 355 | 9.0 | 17.0 | 0.00 | 0.00 | 0.00 | 48 | 1018.1 |
| 20260506194612 | 72 | 335 | 11.0 | 17.0 | 0.00 | 0.00 | 0.00 | 50 | 1018.1 |
| 20260506193030 | 71 | 327 | 13.0 | 21.0 | 0.00 | 0.00 | 0.00 | 52 | 1018.1 |